createdAt,value
2019-01-25T00:01:00.798Z,-3.79
2019-01-25T00:03:31.886Z,-3.73
2019-01-25T00:06:01.641Z,-3.82
2019-01-25T00:08:31.167Z,-3.76
2019-01-25T00:11:02.271Z,-3.80
2019-01-25T00:13:31.827Z,-3.80
2019-01-25T00:16:01.305Z,-3.76
2019-01-25T00:18:30.756Z,-3.78
2019-01-25T00:21:00.297Z,-3.82
2019-01-25T00:23:29.782Z,-3.80
2019-01-25T00:25:59.252Z,-3.78
2019-01-25T00:28:28.777Z,-3.80
2019-01-25T00:30:59.017Z,-3.80
2019-01-25T00:33:28.543Z,-3.78
2019-01-25T00:35:58.383Z,-3.86
2019-01-25T00:38:28.276Z,-3.85
2019-01-25T00:40:58.301Z,-3.92
2019-01-25T00:43:28.221Z,-3.88
2019-01-25T00:45:57.725Z,-3.82
2019-01-25T00:48:27.461Z,-3.81
2019-01-25T00:50:56.980Z,-3.79
2019-01-25T00:53:26.698Z,-3.75
2019-01-25T00:55:56.187Z,-3.79
2019-01-25T00:58:25.958Z,-3.85
2019-01-25T01:00:55.973Z,-3.81
2019-01-25T01:03:25.703Z,-3.79
2019-01-25T01:05:55.172Z,-3.85
2019-01-25T01:08:24.715Z,-3.84
2019-01-25T01:10:54.208Z,-3.83
2019-01-25T01:13:23.774Z,-3.84
2019-01-25T01:15:53.246Z,-3.84
2019-01-25T01:18:22.774Z,-3.85
2019-01-25T01:20:52.267Z,-3.82
2019-01-25T01:23:22.055Z,-3.85
2019-01-25T01:25:51.515Z,-3.85
2019-01-25T01:28:23.120Z,-3.89
2019-01-25T01:30:52.637Z,-3.88
2019-01-25T01:33:22.095Z,-3.90
2019-01-25T01:35:51.571Z,-3.92
2019-01-25T01:38:21.102Z,-3.92
2019-01-25T01:40:50.651Z,-3.86
2019-01-25T01:43:20.415Z,-3.85
2019-01-25T01:45:50.275Z,-3.87
2019-01-25T01:48:19.740Z,-3.90
2019-01-25T01:50:49.220Z,-3.97
2019-01-25T01:53:18.982Z,-3.98
2019-01-25T01:55:48.461Z,-3.94
2019-01-25T01:58:17.926Z,-3.91
2019-01-25T02:00:47.434Z,-3.90
2019-01-25T02:03:16.925Z,-3.92
2019-01-25T02:05:46.395Z,-3.90
2019-01-25T02:08:17.025Z,-3.94
2019-01-25T02:10:46.595Z,-3.97
2019-01-25T02:13:17.681Z,-3.96
2019-01-25T02:15:47.154Z,-3.91
2019-01-25T02:18:16.634Z,-3.94
2019-01-25T02:20:46.103Z,-4.07
2019-01-25T02:23:15.581Z,-4.06
2019-01-25T02:25:45.075Z,-4.13
2019-01-25T02:28:14.528Z,-4.11
2019-01-25T02:30:44.005Z,-4.00
2019-01-25T02:33:13.459Z,-3.96
2019-01-25T02:35:42.961Z,-3.97
2019-01-25T02:38:12.491Z,-3.98
2019-01-25T02:40:41.971Z,-3.93
2019-01-25T02:43:11.513Z,-3.97
2019-01-25T02:45:41.009Z,-3.95
2019-01-25T02:48:10.753Z,-3.93
2019-01-25T02:50:40.223Z,-4.15
2019-01-25T02:53:09.711Z,-4.10
2019-01-25T02:55:39.187Z,-4.08
2019-01-25T02:58:08.643Z,-4.04
2019-01-25T03:00:38.118Z,-4.01
2019-01-25T03:03:09.362Z,-4.06
2019-01-25T03:05:38.826Z,-4.13
2019-01-25T03:08:08.282Z,-4.09
2019-01-25T03:10:46.700Z,-4.04
2019-01-25T03:13:09.740Z,-4.11
2019-01-25T03:15:39.657Z,-4.09
2019-01-25T03:18:09.577Z,-4.05
2019-01-25T03:20:39.387Z,-4.17
2019-01-25T03:23:08.837Z,-4.15
2019-01-25T03:25:38.310Z,-4.14
2019-01-25T03:28:08.086Z,-4.05
2019-01-25T03:30:37.665Z,-4.06
2019-01-25T03:33:08.190Z,-4.03
2019-01-25T03:35:37.681Z,-4.00
2019-01-25T03:38:07.553Z,-3.97
2019-01-25T03:40:37.013Z,-4.09
2019-01-25T03:43:06.515Z,-4.09
2019-01-25T03:45:35.977Z,-3.99
2019-01-25T03:48:05.714Z,-4.12
2019-01-25T03:50:35.175Z,-4.14
2019-01-25T03:53:04.723Z,-4.13
2019-01-25T03:55:34.194Z,-4.16
2019-01-25T03:58:03.923Z,-4.14
2019-01-25T04:00:33.385Z,-4.08
2019-01-25T04:03:03.544Z,-4.05
2019-01-25T04:05:33.055Z,-4.07
2019-01-25T04:08:02.803Z,-4.10
2019-01-25T04:10:32.343Z,-4.08
2019-01-25T04:13:01.819Z,-4.09
2019-01-25T04:15:32.637Z,-4.03
2019-01-25T04:18:02.109Z,-4.06
2019-01-25T04:20:31.823Z,-4.05
2019-01-25T04:23:01.327Z,-4.04
2019-01-25T04:25:30.770Z,-4.13
2019-01-25T04:28:00.261Z,-4.16
2019-01-25T04:30:32.836Z,-4.16
2019-01-25T04:33:02.228Z,-4.12
2019-01-25T04:35:31.742Z,-4.14
2019-01-25T04:38:01.576Z,-4.12
2019-01-25T04:40:31.050Z,-4.15
2019-01-25T04:43:00.527Z,-4.07
2019-01-25T04:45:30.054Z,-4.05
2019-01-25T04:47:59.850Z,-4.00
2019-01-25T04:50:29.320Z,-4.07
2019-01-25T04:52:58.822Z,-4.08
2019-01-25T04:55:32.682Z,-4.05
2019-01-25T04:58:15.003Z,-4.07
2019-01-25T05:00:44.511Z,-4.16
2019-01-25T05:03:15.358Z,-4.18
2019-01-25T05:05:44.877Z,-4.16
2019-01-25T05:08:18.463Z,-4.18
2019-01-25T05:10:47.992Z,-4.15
2019-01-25T05:13:18.052Z,-4.17
2019-01-25T05:15:47.512Z,-4.19
2019-01-25T05:18:16.986Z,-4.15
2019-01-25T05:20:47.374Z,-4.18
2019-01-25T05:23:16.896Z,-4.13
2019-01-25T05:25:46.373Z,-4.18
2019-01-25T05:28:17.875Z,-4.16
2019-01-25T05:30:56.403Z,-4.20
2019-01-25T05:33:25.880Z,-4.19
2019-01-25T05:35:55.353Z,-4.21
2019-01-25T05:38:24.903Z,-4.25
2019-01-25T05:40:54.619Z,-4.22
2019-01-25T05:43:24.119Z,-4.23
2019-01-25T05:45:53.621Z,-4.26
2019-01-25T05:48:26.453Z,-4.24
2019-01-25T05:50:59.105Z,-4.28
2019-01-25T05:53:29.145Z,-4.30
2019-01-25T05:55:58.937Z,-4.32
2019-01-25T05:58:28.519Z,-4.27
2019-01-25T06:00:58.306Z,-4.19
2019-01-25T06:03:27.787Z,-3.48
2019-01-25T06:05:59.538Z,-2.16
2019-01-25T06:08:29.777Z,-1.66
2019-01-25T06:11:01.865Z,-1.18
2019-01-25T06:13:31.329Z,-1.23
2019-01-25T06:16:01.124Z,-1.57
2019-01-25T06:18:30.676Z,-1.33
2019-01-25T06:21:00.208Z,-1.46
2019-01-25T06:23:29.675Z,-1.94
2019-01-25T06:25:59.806Z,-2.52
2019-01-25T06:28:29.359Z,-2.89
2019-01-25T06:30:59.019Z,-3.21
2019-01-25T06:33:28.845Z,-3.52
2019-01-25T06:35:58.314Z,-3.53
2019-01-25T06:38:27.829Z,-3.67
2019-01-25T06:40:57.611Z,-3.74
2019-01-25T06:43:27.087Z,-3.86
2019-01-25T06:45:56.555Z,-3.96
2019-01-25T06:48:26.097Z,-3.99
2019-01-25T06:50:55.559Z,-4.01
2019-01-25T06:53:25.709Z,-4.10
2019-01-25T06:55:55.169Z,-4.13
2019-01-25T06:58:26.605Z,-4.12
2019-01-25T07:01:00.404Z,-4.04
2019-01-25T07:03:29.940Z,-4.03
2019-01-25T07:05:59.406Z,-4.05
2019-01-25T07:08:28.890Z,-4.05
2019-01-25T07:10:58.745Z,-4.00
2019-01-25T07:13:28.227Z,-3.98
2019-01-25T07:15:57.699Z,-3.96
2019-01-25T07:18:27.178Z,-3.98
2019-01-25T07:20:56.968Z,-4.01
2019-01-25T07:23:26.465Z,-3.98
2019-01-25T07:25:55.945Z,-3.96
2019-01-25T07:28:25.670Z,-3.96
2019-01-25T07:30:55.221Z,-3.92
2019-01-25T07:33:24.701Z,-3.92
2019-01-25T07:35:54.228Z,-3.94
2019-01-25T07:38:24.025Z,-3.78
2019-01-25T07:40:53.513Z,-3.73
2019-01-25T07:43:23.002Z,-3.74
2019-01-25T07:45:52.737Z,-3.77
2019-01-25T07:48:22.226Z,-3.73
2019-01-25T07:50:51.983Z,-3.63
2019-01-25T07:53:22.282Z,-3.61
2019-01-25T07:55:52.220Z,-3.52
2019-01-25T07:58:21.723Z,-3.48
2019-01-25T08:00:51.313Z,-3.44
2019-01-25T08:03:21.129Z,-3.41
2019-01-25T08:05:50.606Z,-3.34
2019-01-25T08:08:20.443Z,-3.39
2019-01-25T08:10:50.001Z,-3.30
2019-01-25T08:13:19.613Z,-3.27
2019-01-25T08:15:49.097Z,-3.31
2019-01-25T08:18:18.548Z,-3.24
2019-01-25T08:20:48.015Z,-3.22
2019-01-25T08:23:17.822Z,-3.06
2019-01-25T08:25:47.275Z,-3.13
2019-01-25T08:28:16.780Z,-3.06
2019-01-25T08:30:46.351Z,-3.01
2019-01-25T08:33:15.878Z,-2.97
2019-01-25T08:35:45.334Z,-2.85
2019-01-25T08:38:14.865Z,-2.75
2019-01-25T08:40:44.350Z,-2.73
2019-01-25T08:43:13.830Z,-2.73
2019-01-25T08:45:43.292Z,-2.59
2019-01-25T08:48:12.776Z,-2.47
2019-01-25T08:50:42.244Z,-2.50
2019-01-25T08:53:11.799Z,-2.31
2019-01-25T08:55:41.621Z,-2.21
2019-01-25T08:58:11.385Z,-1.98
2019-01-25T09:00:42.424Z,-1.81
2019-01-25T09:03:12.246Z,-1.67
2019-01-25T09:05:42.054Z,-1.55
2019-01-25T09:08:11.795Z,-1.54
2019-01-25T09:10:41.249Z,-1.33
2019-01-25T09:13:10.726Z,-1.26
2019-01-25T09:15:40.434Z,-1.44
2019-01-25T09:18:09.888Z,-1.40
2019-01-25T09:20:39.410Z,-1.55
2019-01-25T09:23:08.869Z,-1.44
2019-01-25T09:25:38.366Z,-1.42
2019-01-25T09:28:08.139Z,-1.29
2019-01-25T09:30:37.645Z,-1.32
2019-01-25T09:33:07.543Z,-1.34
2019-01-25T09:35:37.037Z,-1.48
2019-01-25T09:38:06.750Z,-1.50
2019-01-25T09:40:36.569Z,-1.28
2019-01-25T09:43:06.029Z,-1.22
2019-01-25T09:45:35.496Z,-1.20
2019-01-25T09:48:05.027Z,-1.02
2019-01-25T09:50:34.803Z,-1.01
2019-01-25T09:53:04.283Z,-0.87
2019-01-25T09:55:34.023Z,-0.90
2019-01-25T09:58:12.303Z,-0.85
2019-01-25T10:00:56.707Z,-0.60
2019-01-25T10:03:26.236Z,-0.44
2019-01-25T10:05:55.738Z,-0.51
2019-01-25T10:08:25.557Z,-0.45
2019-01-25T10:10:55.043Z,-0.69
2019-01-25T10:13:24.510Z,-0.77
2019-01-25T10:15:54.015Z,-0.61
2019-01-25T10:18:24.980Z,-0.79
2019-01-25T10:20:54.974Z,-0.91
2019-01-25T10:23:24.505Z,-0.92
2019-01-25T10:25:53.971Z,-0.68
2019-01-25T10:28:23.447Z,-0.51
2019-01-25T10:30:52.974Z,-0.30
2019-01-25T10:33:22.477Z,-0.23
2019-01-25T10:35:51.953Z,0.09
2019-01-25T10:38:21.406Z,0.55
2019-01-25T10:40:50.876Z,1.58
2019-01-25T10:43:20.337Z,2.47
2019-01-25T10:45:49.807Z,3.01
2019-01-25T10:48:19.265Z,3.26
2019-01-25T10:50:48.723Z,3.26
2019-01-25T10:53:18.184Z,2.88
2019-01-25T10:55:47.957Z,2.81
2019-01-25T10:58:17.426Z,2.73
2019-01-25T11:00:46.958Z,2.78
2019-01-25T11:03:16.686Z,3.60
2019-01-25T11:05:46.166Z,3.96
2019-01-25T11:08:15.610Z,4.55
2019-01-25T11:10:45.115Z,4.93
2019-01-25T11:13:14.652Z,5.29
2019-01-25T11:15:44.129Z,5.96
2019-01-25T11:18:13.586Z,6.26
2019-01-25T11:20:43.074Z,6.71
2019-01-25T11:23:12.561Z,6.19
2019-01-25T11:25:42.984Z,6.15
2019-01-25T11:28:12.460Z,6.00
2019-01-25T11:30:41.933Z,6.08
2019-01-25T11:33:11.787Z,6.53
2019-01-25T11:35:41.277Z,6.67
2019-01-25T11:38:10.732Z,6.38
2019-01-25T11:40:42.537Z,5.64
2019-01-25T11:43:11.996Z,4.95
2019-01-25T11:45:41.476Z,4.09
2019-01-25T11:48:13.156Z,3.54
2019-01-25T11:50:42.618Z,2.12
2019-01-25T11:53:12.385Z,2.10
2019-01-25T11:55:41.880Z,3.22
2019-01-25T11:58:11.758Z,3.96
2019-01-25T12:00:42.888Z,4.80
2019-01-25T12:03:13.732Z,5.43
2019-01-25T12:05:43.359Z,5.83
2019-01-25T12:08:12.900Z,6.31
2019-01-25T12:10:42.714Z,6.61
2019-01-25T12:13:16.312Z,6.58
2019-01-25T12:15:43.562Z,6.67
2019-01-25T12:18:13.102Z,6.69
2019-01-25T12:20:42.584Z,6.53
2019-01-25T12:23:12.205Z,5.11
2019-01-25T12:25:41.700Z,4.14
2019-01-25T12:28:11.168Z,2.91
2019-01-25T12:30:40.780Z,1.89
2019-01-25T12:33:10.292Z,1.31
2019-01-25T12:35:40.803Z,1.12
2019-01-25T12:38:10.273Z,0.38
2019-01-25T12:40:42.194Z,0.45
2019-01-25T12:43:11.926Z,0.34
2019-01-25T12:45:41.638Z,0.01
2019-01-25T12:48:11.186Z,0.10
2019-01-25T12:50:52.778Z,0.30
2019-01-25T12:53:22.512Z,0.50
2019-01-25T12:55:51.966Z,0.39
2019-01-25T12:58:21.426Z,0.34
2019-01-25T13:00:51.696Z,0.39
2019-01-25T13:03:21.138Z,0.49
2019-01-25T13:05:50.962Z,0.44
2019-01-25T13:08:20.587Z,0.30
2019-01-25T13:10:50.063Z,0.29
2019-01-25T13:13:19.520Z,0.23
2019-01-25T13:15:49.369Z,0.38
2019-01-25T13:18:18.855Z,0.27
2019-01-25T13:20:48.310Z,0.28
2019-01-25T13:23:17.801Z,0.41
2019-01-25T13:25:47.404Z,0.18
2019-01-25T13:28:16.828Z,0.26
2019-01-25T13:30:46.325Z,-0.08
2019-01-25T13:33:15.795Z,0.01
2019-01-25T13:35:45.276Z,-0.09
2019-01-25T13:38:14.773Z,-0.10
2019-01-25T13:40:44.345Z,-0.17
2019-01-25T13:43:13.807Z,-0.34
2019-01-25T13:45:43.300Z,-0.41
2019-01-25T13:48:12.830Z,-0.55
2019-01-25T13:50:42.308Z,-0.54
2019-01-25T13:53:11.768Z,-0.61
2019-01-25T13:55:42.749Z,-0.51
2019-01-25T13:58:12.229Z,-0.49
2019-01-25T14:00:41.769Z,-0.40
2019-01-25T14:03:11.240Z,-0.53
2019-01-25T14:05:40.732Z,-0.58
2019-01-25T14:08:10.190Z,-0.62
2019-01-25T14:10:39.942Z,-0.73
2019-01-25T14:13:09.412Z,-0.88
2019-01-25T14:15:38.967Z,-0.86
2019-01-25T14:18:08.431Z,-0.95
2019-01-25T14:20:37.912Z,-0.97
2019-01-25T14:23:07.420Z,-0.89
2019-01-25T14:25:36.904Z,-0.90
2019-01-25T14:28:06.409Z,-0.94
2019-01-25T14:30:40.685Z,-0.95
2019-01-25T14:33:10.146Z,-0.93
2019-01-25T14:35:39.606Z,-0.94
2019-01-25T14:38:09.334Z,-1.02
2019-01-25T14:40:39.230Z,-1.11
2019-01-25T14:43:08.896Z,-1.26
2019-01-25T14:45:38.349Z,-1.25
2019-01-25T14:48:08.282Z,-1.27
2019-01-25T14:50:37.752Z,-1.41
2019-01-25T14:53:09.255Z,-1.46
2019-01-25T14:55:38.716Z,-1.41
2019-01-25T14:58:08.263Z,-1.43
2019-01-25T15:00:37.742Z,-1.36
2019-01-25T15:03:07.237Z,-1.44
2019-01-25T15:05:36.685Z,-1.57
2019-01-25T15:08:06.191Z,-1.57
2019-01-25T15:10:35.685Z,-1.62
2019-01-25T15:13:06.201Z,-1.67
2019-01-25T15:15:35.659Z,-1.60
2019-01-25T15:18:05.372Z,-1.60
2019-01-25T15:20:34.860Z,-1.63
2019-01-25T15:23:04.336Z,-1.65
2019-01-25T15:25:34.121Z,-1.63
2019-01-25T15:28:03.667Z,-1.68
2019-01-25T15:30:33.211Z,-1.72
2019-01-25T15:33:02.675Z,-1.74
2019-01-25T15:35:32.176Z,-1.77
2019-01-25T15:38:01.652Z,-1.82
2019-01-25T15:40:32.070Z,-1.80
2019-01-25T15:43:01.555Z,-1.80
2019-01-25T15:45:31.165Z,-1.84
2019-01-25T15:48:00.645Z,-1.84
2019-01-25T15:50:31.371Z,-1.79
2019-01-25T15:53:00.859Z,-1.70
2019-01-25T15:55:30.392Z,-1.65
2019-01-25T15:57:59.935Z,-1.58
2019-01-25T16:00:29.865Z,-1.54
2019-01-25T16:02:59.338Z,-1.48
2019-01-25T16:05:28.829Z,-1.48
2019-01-25T16:07:58.290Z,-1.43
2019-01-25T16:10:27.784Z,-1.34
2019-01-25T16:12:57.266Z,-1.32
2019-01-25T16:15:28.372Z,-1.47
2019-01-25T16:17:57.870Z,-1.48
2019-01-25T16:20:27.323Z,-1.43
2019-01-25T16:22:56.960Z,-1.42
2019-01-25T16:25:28.932Z,-1.45
2019-01-25T16:27:58.408Z,-1.41
2019-01-25T16:30:33.035Z,-1.34
2019-01-25T16:33:02.932Z,-1.38
2019-01-25T16:35:32.390Z,-1.45
2019-01-25T16:38:01.866Z,-1.41
2019-01-25T16:40:31.603Z,-1.55
2019-01-25T16:43:01.078Z,-1.55
2019-01-25T16:45:33.271Z,-1.52
2019-01-25T16:48:02.860Z,-1.56
2019-01-25T16:50:32.636Z,-1.57
2019-01-25T16:53:02.123Z,-1.60
2019-01-25T16:55:31.618Z,-1.61
2019-01-25T16:58:01.183Z,-1.68
2019-01-25T17:00:35.793Z,-1.70
2019-01-25T17:03:05.547Z,-1.76
2019-01-25T17:05:35.315Z,-1.68
2019-01-25T17:08:05.659Z,-1.68
2019-01-25T17:10:35.487Z,-1.69
2019-01-25T17:13:04.980Z,-1.71
2019-01-25T17:15:34.507Z,-1.73
2019-01-25T17:18:04.664Z,-1.77
2019-01-25T17:20:34.312Z,-1.77
2019-01-25T17:23:04.877Z,-1.72
2019-01-25T17:25:34.386Z,-1.77
2019-01-25T17:28:04.436Z,-1.84
2019-01-25T17:30:36.316Z,-1.92
2019-01-25T17:33:06.443Z,-1.88
2019-01-25T17:35:35.849Z,-1.86
2019-01-25T17:38:05.650Z,-1.89
2019-01-25T17:40:46.462Z,-1.88
2019-01-25T17:43:12.175Z,-1.88
2019-01-25T17:45:41.998Z,-1.92
2019-01-25T17:48:11.749Z,-1.94
2019-01-25T17:50:41.216Z,-1.93
2019-01-25T17:53:10.692Z,-1.95
2019-01-25T17:55:40.156Z,-1.95
2019-01-25T17:58:09.629Z,-1.95
2019-01-25T18:00:40.807Z,-1.93
2019-01-25T18:03:10.278Z,-2.08
2019-01-25T18:05:40.048Z,-2.06
2019-01-25T18:08:09.511Z,-2.09
2019-01-25T18:10:39.265Z,-2.12
2019-01-25T18:13:10.022Z,-2.11
2019-01-25T18:15:39.813Z,-2.14
2019-01-25T18:18:09.755Z,-2.17
2019-01-25T18:20:39.294Z,-2.13
2019-01-25T18:23:08.789Z,-2.12
2019-01-25T18:25:41.184Z,-2.21
2019-01-25T18:28:14.172Z,-2.20
2019-01-25T18:30:52.832Z,-2.24
2019-01-25T18:33:22.306Z,-2.29
2019-01-25T18:35:51.880Z,-2.30
2019-01-25T18:38:21.503Z,-2.32
2019-01-25T18:40:50.957Z,-2.32
2019-01-25T18:43:20.764Z,-2.34
2019-01-25T18:45:50.588Z,-2.38
2019-01-25T18:48:20.198Z,-2.40
2019-01-25T18:50:49.653Z,-2.37
2019-01-25T18:53:19.192Z,-2.38
2019-01-25T18:55:48.929Z,-2.43
2019-01-25T18:58:18.625Z,-2.44
2019-01-25T19:00:48.100Z,-2.44
2019-01-25T19:03:17.599Z,-2.45
2019-01-25T19:05:47.543Z,-2.44
2019-01-25T19:08:17.905Z,-2.46
2019-01-25T19:10:47.372Z,-2.45
2019-01-25T19:13:16.856Z,-2.47
2019-01-25T19:15:46.326Z,-2.48
2019-01-25T19:18:15.790Z,-2.50
2019-01-25T19:20:45.260Z,-2.49
2019-01-25T19:23:14.734Z,-2.47
2019-01-25T19:25:44.272Z,-2.50
2019-01-25T19:28:13.741Z,-2.46
2019-01-25T19:30:45.398Z,-2.42
2019-01-25T19:33:14.833Z,-2.47
2019-01-25T19:35:44.289Z,-2.54
2019-01-25T19:38:14.234Z,-2.58
2019-01-25T19:40:43.660Z,-2.64
2019-01-25T19:43:13.147Z,-2.66
2019-01-25T19:45:42.626Z,-2.67
2019-01-25T19:48:12.086Z,-2.67
2019-01-25T19:50:41.545Z,-2.69
2019-01-25T19:53:11.343Z,-2.73
2019-01-25T19:55:40.814Z,-2.77
2019-01-25T19:58:13.386Z,-2.81
2019-01-25T20:00:45.585Z,-2.82
2019-01-25T20:03:15.212Z,-2.84
2019-01-25T20:05:44.681Z,-2.85
2019-01-25T20:08:14.138Z,-2.88
2019-01-25T20:10:43.613Z,-2.87
2019-01-25T20:13:13.428Z,-2.87
2019-01-25T20:15:43.246Z,-2.91
2019-01-25T20:18:12.699Z,-2.87
2019-01-25T20:20:42.323Z,-2.91
2019-01-25T20:23:12.087Z,-2.91
2019-01-25T20:25:41.550Z,-2.89
2019-01-25T20:28:11.991Z,-2.89
2019-01-25T20:30:41.620Z,-2.85
2019-01-25T20:33:11.150Z,-2.85
2019-01-25T20:35:42.743Z,-2.81
2019-01-25T20:38:12.523Z,-2.80
2019-01-25T20:40:41.992Z,-2.78
2019-01-25T20:43:13.004Z,-2.81
2019-01-25T20:45:43.188Z,-2.78
2019-01-25T20:48:12.668Z,-2.78
2019-01-25T20:50:42.173Z,-2.78
2019-01-25T20:53:13.594Z,-2.75
2019-01-25T20:55:43.672Z,-2.74
2019-01-25T20:58:13.141Z,-2.73
2019-01-25T21:00:42.821Z,-2.67
2019-01-25T21:03:14.353Z,-2.64
2019-01-25T21:05:43.845Z,-2.62
2019-01-25T21:08:13.334Z,-2.61
2019-01-25T21:10:42.858Z,-2.60
2019-01-25T21:13:12.343Z,-2.58
2019-01-25T21:15:41.845Z,-2.55
2019-01-25T21:18:11.855Z,-2.55
2019-01-25T21:20:43.571Z,-2.50
2019-01-25T21:23:13.339Z,-2.52
2019-01-25T21:25:42.824Z,-2.51
2019-01-25T21:28:12.667Z,-2.48
2019-01-25T21:30:42.144Z,-2.45
2019-01-25T21:33:11.613Z,-2.38
2019-01-25T21:35:41.413Z,-2.40
2019-01-25T21:38:11.020Z,-2.35
2019-01-25T21:40:40.513Z,-2.29
2019-01-25T21:43:09.993Z,-2.30
2019-01-25T21:45:43.227Z,-2.23
2019-01-25T21:48:11.587Z,-2.26
2019-01-25T21:50:43.114Z,-2.30
2019-01-25T21:53:12.593Z,-2.31
2019-01-25T21:55:42.332Z,-2.35
2019-01-25T21:58:11.863Z,-2.26
2019-01-25T22:00:41.659Z,-2.25
2019-01-25T22:03:11.109Z,-2.22
2019-01-25T22:05:40.872Z,-2.22
2019-01-25T22:08:11.761Z,-2.18
2019-01-25T22:10:44.029Z,-2.14
2019-01-25T22:13:13.501Z,-2.10
2019-01-25T22:15:50.518Z,-2.10
2019-01-25T22:18:14.207Z,-2.10
2019-01-25T22:20:43.943Z,-1.98
2019-01-25T22:23:13.452Z,-1.95
2019-01-25T22:25:42.937Z,-2.00
2019-01-25T22:28:12.853Z,-1.96
2019-01-25T22:30:42.702Z,-1.95
2019-01-25T22:33:12.170Z,-1.92
2019-01-25T22:35:41.663Z,-1.87
2019-01-25T22:38:11.144Z,-1.83
2019-01-25T22:40:40.621Z,-1.80
2019-01-25T22:43:10.089Z,-1.76
2019-01-25T22:45:39.830Z,-1.76
2019-01-25T22:48:09.290Z,-1.72
2019-01-25T22:50:39.118Z,-1.72
2019-01-25T22:53:08.575Z,-1.73
2019-01-25T22:55:38.132Z,-1.70
2019-01-25T22:58:07.602Z,-1.63
2019-01-25T23:00:47.857Z,-1.66
2019-01-25T23:03:23.545Z,-1.65
2019-01-25T23:06:27.928Z,-1.59
2019-01-25T23:09:00.729Z,-1.57
2019-01-25T23:11:30.565Z,-1.57
2019-01-25T23:14:01.101Z,-1.55
2019-01-25T23:16:30.593Z,-1.53
2019-01-25T23:19:00.406Z,-1.47
2019-01-25T23:21:29.887Z,-1.47
2019-01-25T23:23:59.648Z,-1.41
2019-01-25T23:26:29.127Z,-1.35
2019-01-25T23:28:58.970Z,-1.31
2019-01-25T23:31:28.502Z,-1.24
2019-01-25T23:33:58.051Z,-1.22
2019-01-25T23:36:27.868Z,-1.18
2019-01-25T23:38:57.335Z,-1.15
2019-01-25T23:41:26.817Z,-1.15
2019-01-25T23:43:56.280Z,-1.08
2019-01-25T23:46:25.762Z,-1.00
2019-01-25T23:48:55.234Z,-0.93
2019-01-25T23:51:24.726Z,-0.86
2019-01-25T23:53:54.447Z,-0.81
2019-01-25T23:56:24.248Z,-0.82
2019-01-25T23:58:53.718Z,-0.87
